createdAt,value
2019-05-16T00:02:08.332Z,6.20
2019-05-16T00:04:37.973Z,6.20
2019-05-16T00:07:08.030Z,6.20
2019-05-16T00:09:38.194Z,6.10
2019-05-16T00:12:08.750Z,6.00
2019-05-16T00:14:38.587Z,6.00
2019-05-16T00:17:08.447Z,5.90
2019-05-16T00:19:38.159Z,5.90
2019-05-16T00:22:08.770Z,5.80
2019-05-16T00:24:38.213Z,5.80
2019-05-16T00:27:08.351Z,5.70
2019-05-16T00:29:38.350Z,5.70
2019-05-16T00:32:08.605Z,5.70
2019-05-16T00:34:38.516Z,5.60
2019-05-16T00:37:08.671Z,5.60
2019-05-16T00:39:38.808Z,5.60
2019-05-16T00:42:08.827Z,5.50
2019-05-16T00:44:38.691Z,5.50
2019-05-16T00:47:08.709Z,5.60
2019-05-16T00:49:38.593Z,5.50
2019-05-16T00:52:07.883Z,5.50
2019-05-16T00:54:38.377Z,5.50
2019-05-16T00:57:08.496Z,5.40
2019-05-16T00:59:38.491Z,5.30
2019-05-16T01:02:08.959Z,5.30
2019-05-16T01:04:38.261Z,5.10
2019-05-16T01:07:08.201Z,5.10
2019-05-16T01:09:38.605Z,5.00
2019-05-16T01:12:08.485Z,4.80
2019-05-16T01:14:38.477Z,4.80
2019-05-16T01:17:08.677Z,4.70
2019-05-16T01:19:38.058Z,4.60
2019-05-16T01:22:08.440Z,4.60
2019-05-16T01:24:38.573Z,4.60
2019-05-16T01:27:08.404Z,4.50
2019-05-16T01:29:38.506Z,4.50
2019-05-16T01:32:08.412Z,4.50
2019-05-16T01:34:37.838Z,4.50
2019-05-16T01:37:08.308Z,4.40
2019-05-16T01:39:38.151Z,4.40
2019-05-16T01:42:07.983Z,4.40
2019-05-16T01:44:38.185Z,4.40
2019-05-16T01:47:09.000Z,4.40
2019-05-16T01:49:38.256Z,4.50
2019-05-16T01:52:08.485Z,4.50
2019-05-16T01:54:38.857Z,4.50
2019-05-16T01:57:08.207Z,4.50
2019-05-16T01:59:38.127Z,4.40
2019-05-16T02:02:08.346Z,4.40
2019-05-16T02:04:38.006Z,4.30
2019-05-16T02:07:08.643Z,4.30
2019-05-16T02:09:38.391Z,4.20
2019-05-16T02:12:10.584Z,4.20
2019-05-16T02:14:38.873Z,4.20
2019-05-16T02:17:10.959Z,4.10
2019-05-16T02:19:38.858Z,4.10
2019-05-16T02:22:08.958Z,4.10
2019-05-16T02:24:38.836Z,4.00
2019-05-16T02:27:09.551Z,4.00
2019-05-16T02:29:40.129Z,4.10
2019-05-16T02:32:11.610Z,4.10
2019-05-16T02:34:41.680Z,4.00
2019-05-16T02:37:23.550Z,4.10
2019-05-16T02:39:41.717Z,4.10
2019-05-16T02:42:11.931Z,4.10
2019-05-16T02:44:41.535Z,4.10
2019-05-16T02:47:10.978Z,4.10
2019-05-16T02:49:42.006Z,4.10
2019-05-16T02:52:11.098Z,4.10
2019-05-16T02:54:41.246Z,4.10
2019-05-16T02:57:11.262Z,4.00
2019-05-16T02:59:41.576Z,4.00
2019-05-16T03:02:11.741Z,4.00
2019-05-16T03:04:44.335Z,4.00
2019-05-16T03:07:31.556Z,4.00
2019-05-16T03:09:44.937Z,4.00
2019-05-16T03:12:14.455Z,3.90
2019-05-16T03:14:44.939Z,4.00
2019-05-16T03:17:16.115Z,3.90
2019-05-16T03:19:46.664Z,3.90
2019-05-16T03:22:21.621Z,3.90
2019-05-16T03:24:51.507Z,3.90
2019-05-16T03:27:21.640Z,3.90
2019-05-16T03:29:50.785Z,3.80
2019-05-16T03:32:24.225Z,3.90
2019-05-16T03:34:54.639Z,3.90
2019-05-16T03:37:24.864Z,3.90
2019-05-16T03:39:52.434Z,3.90
2019-05-16T03:42:21.523Z,4.00
2019-05-16T03:44:51.289Z,3.90
2019-05-16T03:47:21.896Z,4.00
2019-05-16T03:49:51.740Z,4.00
2019-05-16T03:52:21.069Z,4.00
2019-05-16T03:54:50.706Z,4.00
2019-05-16T03:57:21.159Z,4.00
2019-05-16T03:59:51.813Z,4.00
2019-05-16T04:02:21.720Z,4.00
2019-05-16T04:04:51.259Z,4.00
2019-05-16T04:07:21.453Z,4.10
2019-05-16T04:09:50.892Z,4.10
2019-05-16T04:12:21.403Z,4.20
2019-05-16T04:14:51.386Z,4.20
2019-05-16T04:17:21.126Z,4.30
2019-05-16T04:19:50.960Z,4.30
2019-05-16T04:22:21.574Z,4.40
2019-05-16T04:24:51.375Z,4.40
2019-05-16T04:27:21.407Z,4.50
2019-05-16T04:29:51.482Z,4.50
2019-05-16T04:32:21.189Z,4.60
2019-05-16T04:34:51.168Z,4.60
2019-05-16T04:37:24.052Z,4.70
2019-05-16T04:39:51.533Z,4.70
2019-05-16T04:42:21.474Z,4.70
2019-05-16T04:44:51.527Z,4.80
2019-05-16T04:47:21.156Z,4.80
2019-05-16T04:49:51.939Z,4.80
2019-05-16T04:52:21.887Z,4.80
2019-05-16T04:54:51.392Z,4.80
2019-05-16T04:57:21.031Z,4.80
2019-05-16T04:59:51.023Z,4.80
2019-05-16T05:02:21.338Z,4.80
2019-05-16T05:04:51.025Z,4.90
2019-05-16T05:07:20.873Z,4.90
2019-05-16T05:09:51.400Z,5.00
2019-05-16T05:12:20.993Z,5.10
2019-05-16T05:14:51.072Z,5.20
2019-05-16T05:17:21.061Z,5.30
2019-05-16T05:19:50.742Z,5.40
2019-05-16T05:22:20.039Z,5.50
2019-05-16T05:24:50.788Z,5.60
2019-05-16T05:27:20.039Z,5.60
2019-05-16T05:29:50.248Z,5.70
2019-05-16T05:32:19.994Z,5.70
2019-05-16T05:34:50.335Z,5.80
2019-05-16T05:37:20.401Z,5.90
2019-05-16T05:39:50.444Z,6.00
2019-05-16T05:42:20.004Z,6.10
2019-05-16T05:44:50.843Z,6.20
2019-05-16T05:47:20.186Z,6.30
2019-05-16T05:49:49.887Z,6.50
2019-05-16T05:52:20.820Z,6.70
2019-05-16T05:54:50.367Z,6.80
2019-05-16T05:57:20.888Z,7.00
2019-05-16T05:59:50.169Z,7.20
2019-05-16T06:02:20.121Z,7.40
2019-05-16T06:04:50.220Z,7.70
2019-05-16T06:07:20.581Z,8.10
2019-05-16T06:09:55.572Z,8.40
2019-05-16T06:12:21.374Z,8.70
2019-05-16T06:14:50.621Z,9.00
2019-05-16T06:17:20.215Z,9.30
2019-05-16T06:19:49.882Z,9.60
2019-05-16T06:22:20.585Z,9.80
2019-05-16T06:24:50.476Z,10.00
2019-05-16T06:27:20.912Z,10.20
2019-05-16T06:29:50.241Z,10.40
2019-05-16T06:32:19.827Z,10.40
2019-05-16T06:34:50.780Z,10.30
2019-05-16T06:37:20.514Z,10.30
2019-05-16T06:39:50.259Z,10.30
2019-05-16T06:42:20.631Z,10.30
2019-05-16T06:44:50.397Z,10.30
2019-05-16T06:47:22.841Z,10.40
2019-05-16T06:49:51.008Z,10.50
2019-05-16T06:52:20.298Z,10.70
2019-05-16T06:54:50.405Z,10.90
2019-05-16T06:57:20.730Z,11.00
2019-05-16T06:59:50.116Z,11.10
2019-05-16T07:02:29.683Z,11.10
2019-05-16T07:04:50.597Z,11.30
2019-05-16T07:07:20.503Z,11.50
2019-05-16T07:10:00.197Z,11.90
2019-05-16T07:12:20.691Z,12.40
2019-05-16T07:14:50.512Z,12.70
2019-05-16T07:17:20.315Z,12.80
2019-05-16T07:19:50.201Z,12.50
2019-05-16T07:22:20.530Z,12.20
2019-05-16T07:24:50.483Z,11.80
2019-05-16T07:27:21.781Z,11.50
2019-05-16T07:29:50.898Z,11.30
2019-05-16T07:32:20.149Z,11.10
2019-05-16T07:34:49.824Z,11.10
2019-05-16T07:37:20.054Z,11.00
2019-05-16T07:39:51.116Z,11.10
2019-05-16T07:42:20.221Z,11.00
2019-05-16T07:44:50.565Z,11.10
2019-05-16T07:47:20.372Z,11.10
2019-05-16T07:49:50.182Z,11.20
2019-05-16T07:52:20.914Z,11.20
2019-05-16T07:54:50.893Z,11.20
2019-05-16T07:57:22.835Z,11.30
2019-05-16T07:59:50.860Z,11.30
2019-05-16T08:02:20.905Z,11.40
2019-05-16T08:04:50.422Z,11.40
2019-05-16T08:07:20.086Z,11.50
2019-05-16T08:09:50.471Z,11.50
2019-05-16T08:12:25.435Z,11.60
2019-05-16T08:14:50.672Z,11.80
2019-05-16T08:17:21.706Z,11.90
2019-05-16T08:19:50.961Z,11.90
2019-05-16T08:22:22.454Z,12.00
2019-05-16T08:24:51.157Z,12.00
2019-05-16T08:27:20.966Z,12.00
2019-05-16T08:29:51.369Z,12.10
2019-05-16T08:32:23.057Z,12.10
2019-05-16T08:34:51.615Z,12.10
2019-05-16T08:37:36.933Z,12.20
2019-05-16T08:39:51.705Z,12.20
2019-05-16T08:42:21.096Z,12.20
2019-05-16T08:44:51.728Z,12.20
2019-05-16T08:47:21.463Z,12.30
2019-05-16T08:49:52.106Z,12.30
2019-05-16T08:52:22.526Z,12.30
2019-05-16T08:54:51.771Z,12.30
2019-05-16T08:59:52.551Z,12.40
2019-05-16T09:02:27.359Z,12.50
2019-05-16T09:04:53.671Z,12.60
2019-05-16T09:07:23.008Z,12.70
2019-05-16T09:09:52.435Z,12.70
2019-05-16T09:10:30.767Z,12.40
2019-05-16T09:12:21.576Z,12.70
2019-05-16T09:14:50.675Z,12.80
2019-05-16T09:17:19.819Z,12.80
2019-05-16T09:19:48.906Z,12.80
2019-05-16T09:22:18.181Z,12.90
2019-05-16T09:24:48.196Z,13.00
2019-05-16T09:27:18.055Z,12.90
2019-05-16T09:29:47.356Z,13.00
2019-05-16T09:32:22.233Z,13.00
2019-05-16T09:34:47.990Z,13.10
2019-05-16T09:37:18.111Z,13.10
2019-05-16T09:39:48.069Z,13.10
2019-05-16T09:42:17.402Z,13.10
2019-05-16T09:44:47.585Z,13.10
2019-05-16T09:47:17.694Z,13.20
2019-05-16T09:49:47.874Z,13.20
2019-05-16T09:52:17.075Z,13.30
2019-05-16T09:54:46.895Z,13.40
2019-05-16T09:57:17.452Z,13.50
2019-05-16T09:59:46.924Z,13.50
2019-05-16T10:02:17.602Z,13.50
2019-05-16T10:04:47.519Z,13.50
2019-05-16T10:07:17.792Z,13.70
2019-05-16T10:09:50.294Z,13.90
2019-05-16T10:12:18.788Z,14.00
2019-05-16T10:14:48.050Z,14.00
2019-05-16T10:17:17.800Z,13.90
2019-05-16T10:19:47.563Z,13.90
2019-05-16T10:22:17.159Z,13.90
2019-05-16T10:24:46.965Z,14.00
2019-05-16T10:27:17.125Z,14.00
2019-05-16T10:29:48.389Z,14.10
2019-05-16T10:32:17.160Z,14.30
2019-05-16T10:34:46.851Z,14.50
2019-05-16T10:37:17.559Z,14.70
2019-05-16T10:39:47.099Z,14.80
2019-05-16T10:42:28.245Z,15.00
2019-05-16T10:44:48.347Z,14.90
2019-05-16T10:47:17.940Z,14.90
2019-05-16T10:49:47.674Z,14.80
2019-05-16T10:52:16.958Z,14.80
2019-05-16T10:54:57.032Z,15.10
2019-05-16T10:57:17.022Z,15.40
2019-05-16T11:00:04.218Z,15.70
2019-05-16T11:02:17.188Z,16.00
2019-05-16T11:04:57.415Z,16.10
2019-05-16T11:07:17.053Z,16.10
2019-05-16T11:09:57.716Z,16.00
2019-05-16T11:12:20.296Z,16.10
2019-05-16T11:14:47.960Z,16.00
2019-05-16T11:17:19.085Z,15.90
2019-05-16T11:19:47.973Z,15.90
2019-05-16T11:22:17.110Z,15.80
2019-05-16T11:24:47.126Z,15.60
2019-05-16T11:27:16.403Z,15.20
2019-05-16T11:29:47.269Z,15.10
2019-05-16T11:32:16.353Z,15.00
2019-05-16T11:34:47.788Z,15.00
2019-05-16T11:37:17.673Z,15.00
2019-05-16T11:39:46.945Z,15.20
2019-05-16T11:42:17.507Z,15.20
2019-05-16T11:44:47.876Z,15.20
2019-05-16T11:47:17.185Z,15.10
2019-05-16T11:49:47.651Z,14.90
2019-05-16T11:52:18.025Z,14.90
2019-05-16T11:54:47.343Z,14.70
2019-05-16T11:57:17.867Z,14.60
2019-05-16T11:59:47.227Z,14.60
2019-05-16T12:02:17.484Z,14.60
2019-05-16T12:04:47.343Z,14.70
2019-05-16T12:07:19.174Z,14.60
2019-05-16T12:09:54.600Z,14.70
2019-05-16T12:12:20.836Z,14.70
2019-05-16T12:14:49.033Z,14.70
2019-05-16T12:17:18.147Z,14.80
2019-05-16T12:19:49.044Z,14.90
2019-05-16T12:22:18.423Z,15.00
2019-05-16T12:24:47.874Z,15.10
2019-05-16T12:27:17.314Z,15.20
2019-05-16T12:29:47.736Z,15.20
2019-05-16T12:32:17.345Z,15.10
2019-05-16T12:34:46.461Z,15.10
2019-05-16T12:37:15.635Z,15.20
2019-05-16T12:39:46.972Z,15.20
2019-05-16T12:42:15.531Z,15.20
2019-05-16T12:44:46.737Z,15.10
2019-05-16T12:47:15.465Z,15.10
2019-05-16T12:49:44.539Z,15.00
2019-05-16T12:52:13.671Z,15.00
2019-05-16T12:54:42.835Z,15.10
2019-05-16T12:57:11.943Z,15.30
2019-05-16T12:59:42.285Z,15.40
2019-05-16T13:02:11.847Z,15.50
2019-05-16T13:04:40.953Z,15.60
2019-05-16T13:07:10.078Z,15.70
2019-05-16T13:09:39.152Z,15.80
2019-05-16T13:12:08.241Z,16.00
2019-05-16T13:14:40.300Z,16.10
2019-05-16T13:17:08.148Z,16.20
2019-05-16T13:19:44.232Z,16.30
2019-05-16T13:22:08.037Z,16.30
2019-05-16T13:24:38.406Z,16.20
2019-05-16T13:27:08.376Z,16.10
2019-05-16T13:29:37.781Z,16.10
2019-05-16T13:32:07.708Z,16.10
2019-05-16T13:34:38.044Z,16.10
2019-05-16T13:37:07.710Z,16.10
2019-05-16T13:39:36.904Z,16.10
2019-05-16T13:42:08.067Z,16.10
2019-05-16T13:44:37.619Z,16.10
2019-05-16T13:47:07.726Z,16.20
2019-05-16T13:49:38.513Z,16.20
2019-05-16T13:52:07.839Z,16.20
2019-05-16T13:54:36.933Z,16.20
2019-05-16T13:57:06.939Z,16.20
2019-05-16T13:59:37.411Z,16.20
2019-05-16T14:02:08.005Z,16.20
2019-05-16T14:04:37.398Z,16.10
2019-05-16T14:07:07.637Z,16.20
2019-05-16T14:09:37.853Z,16.20
2019-05-16T14:12:07.241Z,16.10
2019-05-16T14:14:41.978Z,16.10
2019-05-16T14:17:14.131Z,16.10
2019-05-16T14:19:40.395Z,16.10
2019-05-16T14:22:09.475Z,16.20
2019-05-16T14:24:40.509Z,16.20
2019-05-16T14:27:09.683Z,16.20
2019-05-16T14:29:38.848Z,16.20
2019-05-16T14:32:10.194Z,16.30
2019-05-16T14:34:38.942Z,16.30
2019-05-16T14:37:08.150Z,16.40
2019-05-16T14:39:38.947Z,16.40
2019-05-16T14:42:08.061Z,16.40
2019-05-16T14:44:57.742Z,16.40
2019-05-16T14:47:07.972Z,16.40
2019-05-16T14:49:37.466Z,16.50
2019-05-16T14:52:06.710Z,16.50
2019-05-16T14:54:37.710Z,16.40
2019-05-16T14:57:06.648Z,16.50
2019-05-16T14:59:36.522Z,16.50
2019-05-16T15:02:07.139Z,16.40
2019-05-16T15:04:37.604Z,16.30
2019-05-16T15:07:07.134Z,16.30
2019-05-16T15:09:38.010Z,16.30
2019-05-16T15:12:07.096Z,16.30
2019-05-16T15:14:37.483Z,16.30
2019-05-16T15:17:07.085Z,16.40
2019-05-16T15:19:36.357Z,16.50
2019-05-16T15:22:07.882Z,16.50
2019-05-16T15:24:37.106Z,16.60
2019-05-16T15:27:08.367Z,16.60
2019-05-16T15:29:37.733Z,16.60
2019-05-16T15:32:07.146Z,16.60
2019-05-16T15:34:48.533Z,16.60
2019-05-16T15:37:17.654Z,16.60
2019-05-16T15:39:47.587Z,16.50
2019-05-16T15:42:18.002Z,16.60
2019-05-16T15:44:47.343Z,16.60
2019-05-16T15:47:17.663Z,16.60
2019-05-16T15:49:47.765Z,16.60
2019-05-16T15:52:17.387Z,16.60
2019-05-16T15:54:46.552Z,16.60
2019-05-16T15:57:17.594Z,16.50
2019-05-16T15:59:46.950Z,16.50
2019-05-16T16:02:17.643Z,16.60
2019-05-16T16:04:47.741Z,16.60
2019-05-16T16:07:18.055Z,16.70
2019-05-16T16:09:47.404Z,16.70
2019-05-16T16:12:17.000Z,16.70
2019-05-16T16:14:46.830Z,16.70
2019-05-16T16:17:17.669Z,16.70
2019-05-16T16:19:47.117Z,16.70
2019-05-16T16:22:17.687Z,16.70
2019-05-16T16:24:47.890Z,16.70
2019-05-16T16:27:17.235Z,16.80
2019-05-16T16:29:48.107Z,16.90
2019-05-16T16:32:17.427Z,16.90
2019-05-16T16:34:49.020Z,17.00
2019-05-16T16:37:17.536Z,17.10
2019-05-16T16:39:47.198Z,17.20
2019-05-16T16:42:16.458Z,17.20
2019-05-16T16:44:47.242Z,17.10
2019-05-16T16:47:17.634Z,17.10
2019-05-16T16:49:46.941Z,17.00
2019-05-16T16:52:16.670Z,16.80
2019-05-16T16:54:47.667Z,16.80
2019-05-16T16:57:17.663Z,16.80
2019-05-16T16:59:47.672Z,17.00
2019-05-16T17:02:17.287Z,17.10
2019-05-16T17:04:51.038Z,17.10
2019-05-16T17:07:17.195Z,16.90
2019-05-16T17:09:47.115Z,16.80
2019-05-16T17:12:16.335Z,16.70
2019-05-16T17:14:46.474Z,16.50
2019-05-16T17:17:17.565Z,16.40
2019-05-16T17:19:47.417Z,16.30
2019-05-16T17:22:20.183Z,16.20
2019-05-16T17:24:47.597Z,16.20
2019-05-16T17:27:16.715Z,16.10
2019-05-16T17:29:47.430Z,16.00
2019-05-16T17:32:16.813Z,15.90
2019-05-16T17:34:45.985Z,15.90
2019-05-16T17:37:17.169Z,15.80
2019-05-16T17:39:47.469Z,15.80
2019-05-16T17:42:16.758Z,15.80
2019-05-16T17:44:47.295Z,15.70
2019-05-16T17:47:17.338Z,15.70
2019-05-16T17:49:46.592Z,15.60
2019-05-16T17:52:16.582Z,15.60
2019-05-16T17:54:46.019Z,15.50
2019-05-16T17:57:16.978Z,15.40
2019-05-16T17:59:47.966Z,15.40
2019-05-16T18:02:17.282Z,15.40
2019-05-16T18:04:47.112Z,15.30
2019-05-16T18:07:16.503Z,15.30
2019-05-16T18:09:45.596Z,15.20
2019-05-16T18:12:14.702Z,15.20
2019-05-16T18:14:46.742Z,15.10
2019-05-16T18:17:15.011Z,15.00
2019-05-16T18:19:46.473Z,14.90
2019-05-16T18:22:14.982Z,14.90
2019-05-16T18:24:44.097Z,14.80
2019-05-16T18:27:13.207Z,14.70
2019-05-16T18:29:42.312Z,14.70
2019-05-16T18:32:11.416Z,14.70
2019-05-16T18:34:40.538Z,14.60
2019-05-16T18:37:09.649Z,14.60
2019-05-16T18:39:38.731Z,14.50
2019-05-16T18:42:07.886Z,14.50
2019-05-16T18:44:37.018Z,14.40
2019-05-16T18:47:11.079Z,14.40
2019-05-16T18:49:36.979Z,14.30
2019-05-16T18:52:06.779Z,14.30
2019-05-16T18:54:37.511Z,14.20
2019-05-16T18:57:07.093Z,14.20
2019-05-16T18:59:36.888Z,14.20
2019-05-16T19:02:09.757Z,14.10
2019-05-16T19:04:37.863Z,14.10
2019-05-16T19:07:07.913Z,14.00
2019-05-16T19:09:37.581Z,14.00
2019-05-16T19:12:06.828Z,14.00
2019-05-16T19:14:36.908Z,13.90
2019-05-16T19:17:20.619Z,13.90
2019-05-16T19:19:37.673Z,13.90
2019-05-16T19:22:07.035Z,13.80
2019-05-16T19:24:36.218Z,13.80
2019-05-16T19:27:06.709Z,13.70
2019-05-16T19:29:36.845Z,13.80
2019-05-16T19:32:07.011Z,13.70
2019-05-16T19:34:36.173Z,13.70
2019-05-16T19:37:06.961Z,13.70
2019-05-16T19:39:37.248Z,13.60
2019-05-16T19:42:06.722Z,13.60
2019-05-16T19:44:37.093Z,13.60
2019-05-16T19:47:07.324Z,13.60
2019-05-16T19:49:37.015Z,13.60
2019-05-16T19:52:08.611Z,13.60
2019-05-16T19:54:37.819Z,13.60
2019-05-16T19:57:07.397Z,13.60
2019-05-16T19:59:36.738Z,13.60
2019-05-16T20:02:07.661Z,13.60
2019-05-16T20:04:36.927Z,13.50
2019-05-16T20:07:07.405Z,13.40
2019-05-16T20:09:36.716Z,13.40
2019-05-16T20:12:07.723Z,13.30
2019-05-16T20:14:36.760Z,13.30
2019-05-16T20:17:07.378Z,13.20
2019-05-16T20:19:36.616Z,13.10
2019-05-16T20:22:07.632Z,13.00
2019-05-16T20:24:36.574Z,12.90
2019-05-16T20:27:07.885Z,12.80
2019-05-16T20:29:36.818Z,12.70
2019-05-16T20:32:07.775Z,12.70
2019-05-16T20:34:37.188Z,12.50
2019-05-16T20:37:09.165Z,12.40
2019-05-16T20:39:37.322Z,12.30
2019-05-16T20:42:07.768Z,12.20
2019-05-16T20:44:37.336Z,12.00
2019-05-16T20:47:07.177Z,11.80
2019-05-16T20:49:37.401Z,11.60
2019-05-16T20:52:07.085Z,11.50
2019-05-16T20:54:37.716Z,11.30
2019-05-16T20:57:06.921Z,11.10
2019-05-16T20:59:36.019Z,11.00
2019-05-16T21:02:06.851Z,10.90
2019-05-16T21:04:37.495Z,10.80
2019-05-16T21:07:10.843Z,10.60
2019-05-16T21:09:37.523Z,10.40
2019-05-16T21:12:08.230Z,10.40
2019-05-16T21:14:37.519Z,10.20
2019-05-16T21:17:06.800Z,10.20
2019-05-16T21:19:36.341Z,10.10
2019-05-16T21:22:07.278Z,10.00
2019-05-16T21:24:37.373Z,9.90
2019-05-16T21:27:06.611Z,9.90
2019-05-16T21:29:36.925Z,9.80
2019-05-16T21:32:07.383Z,9.70
2019-05-16T21:34:36.689Z,9.60
2019-05-16T21:37:14.549Z,9.60
2019-05-16T21:39:36.953Z,9.50
2019-05-16T21:42:07.477Z,9.50
2019-05-16T21:44:37.391Z,9.50
2019-05-16T21:47:06.666Z,9.40
2019-05-16T21:49:37.006Z,9.40
2019-05-16T21:52:06.275Z,9.30
2019-05-16T21:54:36.687Z,9.20
2019-05-16T21:57:06.002Z,9.20
2019-05-16T21:59:37.063Z,9.10
2019-05-16T22:02:06.117Z,9.10
2019-05-16T22:04:36.734Z,9.00
2019-05-16T22:07:07.325Z,9.00
2019-05-16T22:09:37.108Z,8.90
2019-05-16T22:12:06.804Z,8.90
2019-05-16T22:14:43.091Z,8.90
2019-05-16T22:17:12.250Z,8.80
2019-05-16T22:19:41.330Z,8.80
2019-05-16T22:22:10.423Z,8.80
2019-05-16T22:24:39.575Z,8.70
2019-05-16T22:27:08.710Z,8.70
2019-05-16T22:29:37.785Z,8.70
2019-05-16T22:32:09.162Z,8.70
2019-05-16T22:34:37.726Z,8.70
2019-05-16T22:37:06.906Z,8.60
2019-05-16T22:39:37.103Z,8.60
2019-05-16T22:42:09.118Z,8.60
2019-05-16T22:44:37.327Z,8.50
2019-05-16T22:47:06.750Z,8.40
2019-05-16T22:49:36.949Z,8.40
2019-05-16T22:52:06.639Z,8.30
2019-05-16T22:54:37.038Z,8.20
2019-05-16T22:57:06.786Z,8.20
2019-05-16T22:59:35.948Z,8.10
2019-05-16T23:02:11.674Z,8.10
2019-05-16T23:04:37.377Z,8.00
2019-05-16T23:07:07.018Z,8.00
2019-05-16T23:09:36.656Z,8.00
2019-05-16T23:12:07.057Z,7.90
2019-05-16T23:14:36.366Z,7.90
2019-05-16T23:17:06.651Z,7.90
2019-05-16T23:19:36.764Z,7.80
2019-05-16T23:22:07.592Z,7.80
2019-05-16T23:24:36.921Z,7.70
2019-05-16T23:27:06.911Z,7.70
2019-05-16T23:29:36.790Z,7.70
2019-05-16T23:32:07.355Z,7.60
2019-05-16T23:34:37.312Z,7.60
2019-05-16T23:37:06.612Z,7.60
2019-05-16T23:39:37.764Z,7.60
2019-05-16T23:42:06.528Z,7.60
2019-05-16T23:44:36.716Z,7.60
2019-05-16T23:47:07.013Z,7.60
2019-05-16T23:49:36.796Z,7.50
2019-05-16T23:52:07.507Z,7.40
2019-05-16T23:54:36.934Z,7.30
2019-05-16T23:57:06.637Z,7.30
2019-05-16T23:59:36.930Z,7.30
